createdAt,value
2019-05-18T00:01:41.545Z,11.70
2019-05-18T00:04:10.986Z,11.70
2019-05-18T00:06:40.399Z,11.70
2019-05-18T00:09:09.749Z,11.70
2019-05-18T00:11:39.139Z,11.70
2019-05-18T00:14:08.526Z,11.60
2019-05-18T00:16:37.919Z,11.60
2019-05-18T00:19:08.925Z,11.60
2019-05-18T00:21:38.294Z,11.60
2019-05-18T00:24:07.683Z,11.70
2019-05-18T00:26:37.172Z,11.70
2019-05-18T00:29:06.565Z,11.70
2019-05-18T00:31:36.032Z,11.70
2019-05-18T00:34:05.461Z,11.70
2019-05-18T00:36:34.922Z,11.70
2019-05-18T00:39:05.826Z,11.60
2019-05-18T00:41:35.215Z,11.60
2019-05-18T00:44:04.624Z,11.60
2019-05-18T00:46:34.081Z,11.60
2019-05-18T00:49:03.478Z,11.60
2019-05-18T00:51:32.867Z,11.60
2019-05-18T00:54:02.236Z,11.50
2019-05-18T00:56:31.622Z,11.50
2019-05-18T00:59:01.006Z,11.50
2019-05-18T01:01:30.373Z,11.50
2019-05-18T01:03:59.772Z,11.50
2019-05-18T01:07:05.755Z,11.40
2019-05-18T01:09:29.062Z,11.40
2019-05-18T01:11:58.413Z,11.40
2019-05-18T01:14:27.778Z,11.40
2019-05-18T01:16:57.195Z,11.40
2019-05-18T01:19:26.575Z,11.40
2019-05-18T01:21:55.934Z,11.30
2019-05-18T01:24:25.336Z,11.40
2019-05-18T01:26:54.713Z,11.30
2019-05-18T01:29:24.112Z,11.40
2019-05-18T01:32:12.919Z,11.40
2019-05-18T01:34:42.324Z,11.40
2019-05-18T01:37:11.759Z,11.40
2019-05-18T01:39:41.155Z,11.40
2019-05-18T01:42:10.546Z,11.40
2019-05-18T01:44:39.947Z,11.40
2019-05-18T01:47:09.339Z,11.40
2019-05-18T01:49:38.717Z,11.40
2019-05-18T01:52:08.101Z,11.40
2019-05-18T01:54:37.482Z,11.40
2019-05-18T01:57:06.897Z,11.30
2019-05-18T01:59:36.269Z,11.30
2019-05-18T02:02:05.641Z,11.30
2019-05-18T02:04:35.026Z,11.30
2019-05-18T02:07:04.434Z,11.40
2019-05-18T02:09:33.915Z,11.30
2019-05-18T02:12:03.303Z,11.30
2019-05-18T02:14:32.690Z,11.30
2019-05-18T02:17:02.091Z,11.20
2019-05-18T02:19:31.456Z,11.20
2019-05-18T02:22:00.847Z,11.20
2019-05-18T02:24:30.235Z,11.10
2019-05-18T02:27:00.587Z,11.10
2019-05-18T02:29:29.983Z,11.10
2019-05-18T02:31:59.376Z,11.10
2019-05-18T02:34:28.808Z,11.00
2019-05-18T02:36:58.198Z,11.00
2019-05-18T02:39:27.588Z,10.90
2019-05-18T02:41:56.952Z,10.90
2019-05-18T02:44:26.350Z,10.90
2019-05-18T02:46:55.733Z,10.80
2019-05-18T02:49:25.125Z,10.80
2019-05-18T02:51:54.578Z,10.80
2019-05-18T02:54:23.942Z,10.80
2019-05-18T02:56:53.345Z,10.80
2019-05-18T02:59:22.712Z,10.80
2019-05-18T03:01:52.079Z,10.80
2019-05-18T03:04:21.470Z,10.70
2019-05-18T03:06:50.893Z,10.80
2019-05-18T03:09:20.257Z,10.70
2019-05-18T03:11:49.649Z,10.70
2019-05-18T03:14:19.027Z,10.70
2019-05-18T03:16:48.398Z,10.70
2019-05-18T03:19:37.213Z,10.80
2019-05-18T03:22:06.598Z,10.70
2019-05-18T03:24:36.002Z,10.70
2019-05-18T03:27:05.397Z,10.70
2019-05-18T03:29:34.782Z,10.70
2019-05-18T03:32:04.200Z,10.70
2019-05-18T03:34:33.634Z,10.60
2019-05-18T03:37:03.021Z,10.60
2019-05-18T03:39:32.417Z,10.60
2019-05-18T03:42:01.898Z,10.50
2019-05-18T03:44:31.669Z,10.50
2019-05-18T03:47:00.946Z,10.60
2019-05-18T03:49:30.349Z,10.60
2019-05-18T03:51:59.705Z,10.60
2019-05-18T03:54:29.115Z,10.60
2019-05-18T03:56:58.516Z,10.60
2019-05-18T03:59:27.874Z,10.60
2019-05-18T04:01:57.275Z,10.60
2019-05-18T04:04:26.634Z,10.70
2019-05-18T04:06:56.021Z,10.70
2019-05-18T04:09:25.433Z,10.60
2019-05-18T04:11:54.803Z,10.60
2019-05-18T04:14:24.179Z,10.60
2019-05-18T04:16:55.209Z,10.60
2019-05-18T04:19:24.638Z,10.60
2019-05-18T04:21:54.271Z,10.60
2019-05-18T04:24:23.625Z,10.60
2019-05-18T04:26:53.031Z,10.60
2019-05-18T04:29:22.425Z,10.60
2019-05-18T04:31:52.186Z,10.70
2019-05-18T04:34:21.566Z,10.70
2019-05-18T04:36:50.928Z,10.70
2019-05-18T04:39:20.322Z,10.70
2019-05-18T04:41:49.723Z,10.80
2019-05-18T04:44:19.095Z,10.80
2019-05-18T04:46:48.491Z,10.90
2019-05-18T04:49:17.849Z,11.00
2019-05-18T04:51:47.248Z,11.10
2019-05-18T04:54:16.624Z,11.10
2019-05-18T04:56:45.992Z,11.20
2019-05-18T04:59:15.375Z,11.30
2019-05-18T05:01:44.791Z,11.40
2019-05-18T05:04:14.533Z,11.50
2019-05-18T05:06:44.918Z,11.70
2019-05-18T05:09:14.316Z,11.80
2019-05-18T05:11:45.305Z,11.90
2019-05-18T05:14:14.692Z,12.00
2019-05-18T05:16:44.085Z,12.10
2019-05-18T05:19:26.288Z,12.20
2019-05-18T05:21:55.676Z,12.20
2019-05-18T05:24:25.072Z,12.30
2019-05-18T05:26:54.531Z,12.40
2019-05-18T05:29:23.894Z,12.50
2019-05-18T05:32:05.479Z,12.60
2019-05-18T05:34:34.869Z,12.60
2019-05-18T05:37:04.277Z,12.70
2019-05-18T05:39:33.665Z,12.80
2019-05-18T05:42:03.053Z,12.90
2019-05-18T05:44:32.453Z,12.90
2019-05-18T05:47:01.848Z,13.00
2019-05-18T05:49:31.213Z,13.00
2019-05-18T05:52:00.608Z,13.10
2019-05-18T05:54:30.002Z,13.20
2019-05-18T05:56:59.387Z,13.30
2019-05-18T05:59:28.754Z,13.40
2019-05-18T06:01:58.156Z,13.40
2019-05-18T06:04:27.556Z,13.50
2019-05-18T06:06:58.038Z,13.60
2019-05-18T06:09:27.858Z,13.70
2019-05-18T06:11:57.243Z,13.80
2019-05-18T06:14:27.059Z,13.90
2019-05-18T06:16:56.364Z,14.00
2019-05-18T06:19:25.880Z,14.10
2019-05-18T06:21:55.261Z,14.20
2019-05-18T06:24:24.729Z,14.30
2019-05-18T06:26:55.078Z,14.40
2019-05-18T06:29:24.510Z,14.50
2019-05-18T06:31:53.907Z,14.50
2019-05-18T06:34:23.361Z,14.60
2019-05-18T06:36:55.831Z,14.70
2019-05-18T06:39:23.786Z,14.80
2019-05-18T06:41:53.181Z,14.80
2019-05-18T06:44:22.647Z,14.90
2019-05-18T06:46:52.038Z,15.00
2019-05-18T06:49:21.433Z,15.10
2019-05-18T06:51:50.821Z,15.20
2019-05-18T06:54:20.232Z,15.30
2019-05-18T06:56:49.597Z,15.30
2019-05-18T06:59:18.985Z,15.50
2019-05-18T07:01:48.350Z,15.50
2019-05-18T07:04:17.745Z,15.60
2019-05-18T07:06:47.127Z,15.70
2019-05-18T07:09:16.493Z,15.80
2019-05-18T07:11:45.952Z,15.80
2019-05-18T07:14:25.197Z,15.90
2019-05-18T07:16:46.341Z,16.00
2019-05-18T07:19:15.752Z,16.00
2019-05-18T07:21:45.138Z,16.00
2019-05-18T07:24:14.507Z,16.10
2019-05-18T07:26:43.898Z,16.20
2019-05-18T07:29:13.282Z,16.30
2019-05-18T07:31:42.650Z,16.40
2019-05-18T07:34:12.044Z,16.50
2019-05-18T07:36:41.466Z,16.40
2019-05-18T07:39:10.853Z,16.50
2019-05-18T07:41:46.895Z,16.60
2019-05-18T07:44:12.344Z,16.60
2019-05-18T07:46:41.706Z,16.60
2019-05-18T07:49:11.103Z,16.70
2019-05-18T07:52:00.283Z,16.80
2019-05-18T07:54:32.135Z,16.90
2019-05-18T07:57:03.297Z,16.90
2019-05-18T07:59:32.658Z,17.00
2019-05-18T08:02:02.129Z,17.00
2019-05-18T08:04:31.562Z,17.10
2019-05-18T08:07:00.962Z,17.10
2019-05-18T08:09:30.359Z,17.20
2019-05-18T08:11:59.726Z,17.20
2019-05-18T08:14:29.355Z,17.30
2019-05-18T08:16:58.913Z,17.30
2019-05-18T08:19:28.371Z,17.40
2019-05-18T08:21:57.746Z,17.40
2019-05-18T08:24:27.266Z,17.50
2019-05-18T08:26:56.695Z,17.50
2019-05-18T08:29:26.093Z,17.50
2019-05-18T08:31:55.459Z,17.60
2019-05-18T08:34:24.861Z,17.70
2019-05-18T08:36:54.655Z,17.80
2019-05-18T08:39:25.135Z,17.80
2019-05-18T08:41:54.632Z,17.80
2019-05-18T08:44:23.985Z,17.90
2019-05-18T08:46:53.370Z,17.90
2019-05-18T08:49:22.767Z,17.90
2019-05-18T08:51:52.174Z,17.90
2019-05-18T08:54:33.852Z,18.00
2019-05-18T08:57:03.243Z,18.00
2019-05-18T08:59:32.946Z,18.10
2019-05-18T09:02:02.622Z,18.10
2019-05-18T09:04:36.882Z,18.20
2019-05-18T09:07:17.677Z,18.10
2019-05-18T09:09:47.128Z,18.20
2019-05-18T09:12:16.477Z,18.30
2019-05-18T09:14:46.512Z,18.40
2019-05-18T09:17:15.996Z,18.40
2019-05-18T09:19:57.522Z,18.50
2019-05-18T09:22:26.911Z,18.50
2019-05-18T09:24:56.435Z,18.60
2019-05-18T09:27:25.826Z,18.70
2019-05-18T09:29:55.210Z,18.70
2019-05-18T09:32:24.642Z,18.70
2019-05-18T09:34:55.171Z,18.80
2019-05-18T09:37:24.536Z,18.80
2019-05-18T09:40:13.404Z,18.80
2019-05-18T09:42:42.743Z,18.90
2019-05-18T09:45:12.112Z,19.00
2019-05-18T09:47:41.550Z,19.00
2019-05-18T09:50:12.594Z,19.10
2019-05-18T09:52:45.367Z,19.10
2019-05-18T09:55:13.022Z,19.20
2019-05-18T09:57:42.384Z,19.20
2019-05-18T10:00:13.775Z,19.30
2019-05-18T10:02:43.309Z,19.30
2019-05-18T10:05:12.733Z,19.40
2019-05-18T10:07:42.183Z,19.50
2019-05-18T10:10:24.499Z,19.50
2019-05-18T10:12:53.952Z,19.60
2019-05-18T10:15:23.443Z,19.70
2019-05-18T10:17:52.921Z,19.70
2019-05-18T10:20:22.345Z,19.80
2019-05-18T10:23:04.091Z,19.90
2019-05-18T10:25:22.809Z,19.90
2019-05-18T10:27:52.228Z,20.00
2019-05-18T10:30:21.593Z,20.10
2019-05-18T10:32:51.342Z,20.10
2019-05-18T10:35:20.644Z,20.20
2019-05-18T10:38:08.041Z,20.20
2019-05-18T10:40:52.187Z,20.40
2019-05-18T10:43:27.429Z,20.40
2019-05-18T10:46:46.954Z,20.50
2019-05-18T10:48:53.415Z,20.50
2019-05-18T10:54:45.148Z,20.60
2019-05-18T11:01:54.532Z,20.70
2019-05-18T11:03:13.859Z,20.80
2019-05-18T11:05:45.066Z,20.90
2019-05-18T11:08:19.352Z,20.90
2019-05-18T11:10:48.750Z,21.00
2019-05-18T11:13:18.160Z,21.10
2019-05-18T11:15:47.542Z,21.10
2019-05-18T11:18:16.913Z,21.20
2019-05-18T11:20:46.371Z,21.20
2019-05-18T11:23:15.746Z,21.20
2019-05-18T11:25:45.152Z,21.20
2019-05-18T11:28:14.536Z,21.30
2019-05-18T11:30:43.900Z,21.30
2019-05-18T11:33:13.283Z,21.30
2019-05-18T11:35:42.680Z,21.30
2019-05-18T11:38:12.052Z,21.40
2019-05-18T11:40:41.410Z,21.40
2019-05-18T11:43:10.776Z,21.40
2019-05-18T11:45:40.166Z,21.40
2019-05-18T11:48:09.655Z,21.50
2019-05-18T11:50:39.006Z,21.50
2019-05-18T11:53:08.408Z,21.60
2019-05-18T11:55:37.800Z,21.70
2019-05-18T11:58:07.158Z,21.80
2019-05-18T12:00:36.553Z,21.80
2019-05-18T12:03:06.011Z,21.90
2019-05-18T12:05:35.398Z,21.90
2019-05-18T12:08:04.795Z,22.00
2019-05-18T12:10:34.146Z,22.00
2019-05-18T12:13:03.532Z,22.10
2019-05-18T12:15:32.905Z,22.10
2019-05-18T12:18:02.289Z,22.20
2019-05-18T12:20:31.687Z,22.20
2019-05-18T12:23:01.120Z,22.30
2019-05-18T12:25:30.503Z,22.40
2019-05-18T12:27:59.882Z,22.40
2019-05-18T12:30:29.551Z,22.50
2019-05-18T12:32:58.938Z,22.60
2019-05-18T12:35:29.937Z,22.70
2019-05-18T12:37:59.340Z,22.90
2019-05-18T12:40:28.736Z,23.10
2019-05-18T12:42:58.137Z,23.20
2019-05-18T12:45:27.522Z,23.30
2019-05-18T12:47:57.978Z,23.50
2019-05-18T12:50:27.342Z,23.60
2019-05-18T12:52:56.794Z,23.70
2019-05-18T12:55:26.175Z,23.80
2019-05-18T12:57:55.534Z,23.90
2019-05-18T13:00:24.930Z,24.00
2019-05-18T13:02:54.306Z,24.00
2019-05-18T13:05:23.671Z,24.10
2019-05-18T13:07:53.052Z,24.10
2019-05-18T13:10:23.511Z,24.10
2019-05-18T13:12:52.898Z,24.20
2019-05-18T13:15:22.279Z,24.20
2019-05-18T13:17:51.662Z,24.30
2019-05-18T13:20:21.051Z,24.40
2019-05-18T13:22:50.417Z,24.40
2019-05-18T13:25:19.805Z,24.40
2019-05-18T13:27:49.202Z,24.40
2019-05-18T13:30:19.834Z,24.40
2019-05-18T13:32:49.623Z,24.50
2019-05-18T13:35:19.049Z,24.40
2019-05-18T13:37:48.503Z,24.40
2019-05-18T13:40:17.893Z,24.40
2019-05-18T13:42:47.250Z,24.40
2019-05-18T13:45:16.774Z,24.40
2019-05-18T13:47:46.159Z,24.40
2019-05-18T13:50:15.542Z,24.40
2019-05-18T13:52:44.941Z,24.40
2019-05-18T13:55:15.375Z,24.30
2019-05-18T13:57:44.749Z,24.20
2019-05-18T14:00:14.142Z,24.10
2019-05-18T14:03:02.962Z,24.00
2019-05-18T14:05:45.027Z,23.90
2019-05-18T14:08:15.803Z,23.90
2019-05-18T14:10:45.605Z,23.80
2019-05-18T14:13:14.991Z,23.80
2019-05-18T14:15:44.646Z,23.80
2019-05-18T14:18:14.027Z,23.70
2019-05-18T14:20:43.579Z,23.70
2019-05-18T14:23:14.039Z,23.70
2019-05-18T14:25:46.065Z,23.60
2019-05-18T14:28:14.432Z,23.50
2019-05-18T14:30:43.808Z,23.50
2019-05-18T14:33:13.251Z,23.50
2019-05-18T14:35:42.643Z,23.40
2019-05-18T14:38:12.034Z,23.40
2019-05-18T14:40:41.418Z,23.40
2019-05-18T14:43:10.797Z,23.20
2019-05-18T14:45:40.172Z,23.20
2019-05-18T14:48:09.621Z,23.20
2019-05-18T14:50:39.005Z,23.10
2019-05-18T14:53:08.398Z,23.00
2019-05-18T14:55:37.754Z,23.00
2019-05-18T14:58:07.140Z,22.90
2019-05-18T15:00:36.523Z,22.90
2019-05-18T15:03:05.913Z,22.80
2019-05-18T15:05:36.916Z,22.80
2019-05-18T15:08:06.280Z,22.70
2019-05-18T15:10:35.675Z,22.60
2019-05-18T15:13:05.069Z,22.60
2019-05-18T15:15:34.634Z,22.50
2019-05-18T15:18:04.071Z,22.50
2019-05-18T15:20:33.624Z,22.50
2019-05-18T15:23:03.082Z,22.50
2019-05-18T15:25:32.505Z,22.40
2019-05-18T15:28:01.886Z,22.30
2019-05-18T15:30:31.327Z,22.30
2019-05-18T15:33:00.706Z,22.30
2019-05-18T15:35:30.070Z,22.20
2019-05-18T15:37:59.545Z,22.20
2019-05-18T15:40:28.932Z,22.20
2019-05-18T15:42:58.363Z,22.10
2019-05-18T15:45:27.739Z,22.00
2019-05-18T15:47:57.127Z,22.00
2019-05-18T15:50:26.503Z,21.90
2019-05-18T15:52:55.884Z,21.90
2019-05-18T15:55:25.258Z,21.90
2019-05-18T15:57:54.655Z,21.80
2019-05-18T16:00:24.041Z,21.80
2019-05-18T16:02:53.463Z,21.80
2019-05-18T16:05:22.841Z,21.80
2019-05-18T16:07:52.308Z,21.80
2019-05-18T16:10:21.679Z,21.80
2019-05-18T16:12:51.060Z,21.80
2019-05-18T16:15:20.418Z,21.70
2019-05-18T16:17:49.877Z,21.70
2019-05-18T16:20:19.239Z,21.70
2019-05-18T16:22:48.619Z,21.70
2019-05-18T16:25:18.009Z,21.70
2019-05-18T16:27:47.367Z,21.70
2019-05-18T16:30:16.754Z,21.60
2019-05-18T16:32:46.113Z,21.60
2019-05-18T16:35:15.637Z,21.60
2019-05-18T16:37:45.117Z,21.60
2019-05-18T16:40:14.555Z,21.60
2019-05-18T16:42:46.549Z,21.60
2019-05-18T16:45:15.994Z,21.60
2019-05-18T16:47:44.705Z,21.50
2019-05-18T16:50:14.080Z,21.50
2019-05-18T16:52:43.437Z,21.50
2019-05-18T16:55:12.958Z,21.50
2019-05-18T16:57:43.428Z,21.50
2019-05-18T17:00:16.519Z,21.40
2019-05-18T17:02:46.073Z,21.40
2019-05-18T17:05:15.618Z,21.40
2019-05-18T17:07:44.995Z,21.40
2019-05-18T17:10:14.781Z,21.30
2019-05-18T17:12:44.161Z,21.40
2019-05-18T17:15:13.540Z,21.40
2019-05-18T17:17:42.913Z,21.30
2019-05-18T17:20:13.387Z,21.30
2019-05-18T17:22:42.795Z,21.30
2019-05-18T17:25:12.163Z,21.30
2019-05-18T17:27:41.913Z,21.20
2019-05-18T17:30:11.434Z,21.20
2019-05-18T17:32:44.473Z,21.20
2019-05-18T17:35:14.290Z,21.10
2019-05-18T17:38:03.171Z,21.10
2019-05-18T17:40:32.719Z,21.00
2019-05-18T17:43:02.144Z,21.00
2019-05-18T17:45:31.664Z,20.90
2019-05-18T17:48:01.047Z,20.80
2019-05-18T17:50:30.475Z,20.80
2019-05-18T17:52:59.864Z,20.70
2019-05-18T17:55:29.297Z,20.60
2019-05-18T17:57:58.761Z,20.60
2019-05-18T18:00:28.228Z,20.50
2019-05-18T18:02:57.701Z,20.40
2019-05-18T18:05:27.164Z,20.30
2019-05-18T18:07:56.612Z,20.10
2019-05-18T18:10:25.983Z,20.00
2019-05-18T18:12:56.615Z,19.80
2019-05-18T18:15:26.163Z,19.70
2019-05-18T18:17:55.590Z,19.60
2019-05-18T18:20:25.850Z,19.50
2019-05-18T18:22:55.238Z,19.40
2019-05-18T18:25:24.611Z,19.30
2019-05-18T18:27:54.001Z,19.10
2019-05-18T18:30:23.596Z,19.00
2019-05-18T18:32:53.036Z,18.80
2019-05-18T18:35:22.495Z,18.70
2019-05-18T18:37:51.962Z,18.60
2019-05-18T18:40:21.333Z,18.50
2019-05-18T18:42:50.841Z,18.30
2019-05-18T18:45:20.249Z,18.20
2019-05-18T18:47:49.684Z,18.10
2019-05-18T18:50:19.075Z,18.00
2019-05-18T18:52:48.483Z,17.90
2019-05-18T18:55:17.996Z,17.80
2019-05-18T18:57:47.384Z,17.70
2019-05-18T19:00:17.415Z,17.60
2019-05-18T19:02:48.483Z,17.60
2019-05-18T19:05:17.886Z,17.50
2019-05-18T19:07:47.265Z,17.40
2019-05-18T19:10:18.255Z,17.30
2019-05-18T19:12:47.648Z,17.20
2019-05-18T19:15:20.602Z,17.10
2019-05-18T19:17:48.253Z,17.00
2019-05-18T19:20:17.642Z,16.90
2019-05-18T19:22:48.652Z,16.90
2019-05-18T19:25:18.047Z,16.80
2019-05-18T19:27:54.864Z,16.70
2019-05-18T19:30:19.384Z,16.70
2019-05-18T19:32:48.947Z,16.70
2019-05-18T19:35:18.577Z,16.60
2019-05-18T19:37:48.107Z,16.50
2019-05-18T19:40:17.490Z,16.50
2019-05-18T19:42:47.462Z,16.40
2019-05-18T19:45:17.038Z,16.30
2019-05-18T19:47:46.568Z,16.20
2019-05-18T19:50:28.007Z,16.20
2019-05-18T19:52:57.390Z,16.10
2019-05-18T19:55:26.865Z,16.10
2019-05-18T19:58:08.049Z,16.00
2019-05-18T20:00:27.327Z,16.00
2019-05-18T20:02:56.830Z,16.00
2019-05-18T20:05:27.115Z,16.00
2019-05-18T20:07:56.761Z,16.00
2019-05-18T20:10:26.316Z,16.00
2019-05-18T20:12:55.779Z,16.00
2019-05-18T20:15:25.169Z,16.10
2019-05-18T20:17:54.534Z,16.10
2019-05-18T20:20:23.925Z,16.10
2019-05-18T20:22:53.455Z,16.10
2019-05-18T20:25:22.823Z,16.10
2019-05-18T20:27:52.379Z,16.10
2019-05-18T20:30:21.846Z,16.10
2019-05-18T20:32:51.308Z,16.10
2019-05-18T20:35:20.818Z,16.10
2019-05-18T20:37:50.179Z,16.00
2019-05-18T20:40:19.638Z,16.00
2019-05-18T20:42:49.106Z,16.00
2019-05-18T20:45:18.498Z,16.00
2019-05-18T20:47:47.972Z,16.00
2019-05-18T20:50:17.394Z,16.00
2019-05-18T20:52:46.891Z,16.00
2019-05-18T20:55:16.491Z,16.00
2019-05-18T20:57:45.934Z,16.00
2019-05-18T21:00:15.496Z,16.00
2019-05-18T21:02:45.082Z,16.00
2019-05-18T21:05:14.593Z,15.90
2019-05-18T21:07:44.045Z,15.90
2019-05-18T21:10:13.500Z,15.90
2019-05-18T21:12:42.959Z,15.80
2019-05-18T21:15:12.349Z,15.80
2019-05-18T21:17:41.727Z,15.70
2019-05-18T21:20:11.111Z,15.70
2019-05-18T21:22:40.487Z,15.60
2019-05-18T21:25:09.871Z,15.60
2019-05-18T21:27:39.246Z,15.60
2019-05-18T21:30:08.640Z,15.50
2019-05-18T21:32:38.028Z,15.50
2019-05-18T21:35:07.486Z,15.50
2019-05-18T21:37:36.881Z,15.40
2019-05-18T21:40:06.271Z,15.30
2019-05-18T21:42:35.662Z,15.30
2019-05-18T21:45:06.313Z,15.20
2019-05-18T21:47:35.682Z,15.10
2019-05-18T21:50:06.879Z,15.10
2019-05-18T21:52:36.267Z,15.10
2019-05-18T21:55:06.625Z,15.10
2019-05-18T21:57:36.019Z,15.10
2019-05-18T22:00:06.142Z,15.10
2019-05-18T22:02:37.139Z,15.10
2019-05-18T22:05:06.516Z,15.00
2019-05-18T22:07:35.952Z,15.10
2019-05-18T22:10:08.599Z,15.10
2019-05-18T22:12:37.983Z,15.00
2019-05-18T22:15:07.719Z,15.00
2019-05-18T22:17:55.421Z,15.00
2019-05-18T22:20:24.830Z,15.00
2019-05-18T22:22:54.206Z,14.90
2019-05-18T22:25:23.605Z,14.90
2019-05-18T22:27:52.997Z,14.90
2019-05-18T22:30:22.371Z,14.90
2019-05-18T22:32:51.750Z,14.90
2019-05-18T22:35:21.145Z,14.90
2019-05-18T22:37:50.520Z,14.90
2019-05-18T22:40:19.897Z,14.90
2019-05-18T22:42:49.306Z,14.80
2019-05-18T22:45:18.665Z,14.80
2019-05-18T22:47:48.094Z,14.80
2019-05-18T22:50:17.526Z,14.70
2019-05-18T22:52:46.902Z,14.70
2019-05-18T22:55:16.283Z,14.70
2019-05-18T22:57:45.669Z,14.70
2019-05-18T23:00:15.138Z,14.70
2019-05-18T23:02:44.605Z,14.70
2019-05-18T23:05:13.973Z,14.80
2019-05-18T23:07:43.437Z,14.80
2019-05-18T23:10:32.221Z,14.80
2019-05-18T23:13:01.614Z,14.80
2019-05-18T23:15:31.422Z,14.80
2019-05-18T23:18:00.708Z,14.80
2019-05-18T23:20:30.159Z,14.80
2019-05-18T23:22:59.528Z,14.70
2019-05-18T23:25:28.917Z,14.70
2019-05-18T23:27:58.304Z,14.70
2019-05-18T23:30:27.687Z,14.70
2019-05-18T23:32:57.062Z,14.70
2019-05-18T23:35:26.465Z,14.70
2019-05-18T23:37:55.831Z,14.70
2019-05-18T23:40:25.219Z,14.70
2019-05-18T23:42:54.615Z,14.70
2019-05-18T23:45:23.974Z,14.70
2019-05-18T23:47:53.367Z,14.70
2019-05-18T23:50:22.802Z,14.70
2019-05-18T23:52:52.224Z,14.70
2019-05-18T23:55:21.602Z,14.70
2019-05-18T23:57:50.979Z,14.70
